Thunder radar more information blitzortung!


Radar de pluja more information rain snow radar


Visita la nostra xarxa de llocs de meteo:

Template documentation
and downloads

And another site



No particular awareness of the weather is required.    There are no Weather-warnings

Pagina Historial Weather Underground text

Diari Resum February 3, 2018 Unitats:  Imperial    Mètric   Tant
« Previous Dia
SegĂźent Dia »
Diari Setmana Mensual Anual Personalitzada
  Maxima: Minima: Media:
Temperatura: TemperatureC °F 0.9 °F 6.1 °F
Punt de rosada: DewpointC °F -9.3 °F -3.8 °F
Humitat: Humidity % 39 % 49 %
Wind Speed: WindSpeedKMH mph 0.0 mph 8.3 mph
RĂ fegues de vent: WindSpeedGustKMH mph - -
Vent:- - WSW
Pression baro: PressurehPa in 1007.0 in -
Precipitacions: 0.0 in    
Historical Graphs
 
 
Dades de taula per February 3, 2018
Temps Temperatura Punt de rosada Pression baro Vent Wind Speed RĂ fegues de vent Humitat Rainfall Rate (Hourly)
TemperatureC °F DewpointC °F PressurehPa in Calm     Humidity % HourlyPrecipMM in
00:03 3.5 °F -7.9 °F 1008.0 in SSE 3.7 mph 3.7 mph 43 % 0.0 in
00:08 3.5 °F -7.9 °F 1008.0 in NNW 6.1 mph 6.1 mph 43 % 0.0 in
00:13 3.5 °F -7.9 °F 1008.0 in WNW 5.8 mph 5.8 mph 43 % 0.0 in
00:18 3.5 °F -7.9 °F 1008.0 in WSW 4.7 mph 4.7 mph 43 % 0.0 in
00:23 3.6 °F -7.8 °F 1008.0 in SW 3.7 mph 3.7 mph 43 % 0.0 in
00:28 3.7 °F -7.7 °F 1008.0 in NNW 3.7 mph 3.7 mph 43 % 0.0 in
00:33 3.7 °F -7.7 °F 1007.0 in WNW 3.7 mph 3.7 mph 43 % 0.0 in
00:38 3.7 °F -7.4 °F 1007.0 in WSW 5.8 mph 5.8 mph 44 % 0.0 in
00:43 3.8 °F -7.7 °F 1007.0 in SW 5.6 mph 5.6 mph 43 % 0.0 in
00:48 3.7 °F -7.7 °F 1008.0 in WSW 3.7 mph 3.9 mph 43 % 0.0 in
00:53 3.6 °F -7.8 °F 1008.0 in WSW 3.7 mph 4.2 mph 43 % 0.0 in
01:03 3.7 °F -8.1 °F 1008.0 in ESE 3.7 mph 3.7 mph 42 % 0.0 in
01:08 3.7 °F -7.7 °F 1008.0 in WNW 7.4 mph 7.4 mph 43 % 0.0 in
01:13 4.0 °F -7.5 °F 1008.0 in NNW 11.9 mph 11.9 mph 43 % 0.0 in
01:18 4.0 °F -7.8 °F 1008.0 in SW 7.4 mph 7.4 mph 42 % 0.0 in
01:23 4.2 °F -7.3 °F 1008.0 in WNW 12.2 mph 12.2 mph 43 % 0.0 in
01:28 4.2 °F -7.6 °F 1008.0 in West 13.0 mph 13.0 mph 42 % 0.0 in
01:33 4.3 °F -7.5 °F 1008.0 in SW 5.6 mph 6.1 mph 42 % 0.0 in
01:38 4.4 °F -7.7 °F 1008.0 in SW 11.1 mph 11.1 mph 41 % 0.0 in
01:43 4.4 °F -7.7 °F 1008.0 in West 5.6 mph 6.4 mph 41 % 0.0 in
01:48 4.3 °F -7.8 °F 1008.0 in West 7.6 mph 7.6 mph 41 % 0.0 in
01:53 4.2 °F -7.9 °F 1008.0 in WSW 6.1 mph 6.1 mph 41 % 0.0 in
01:58 4.1 °F -8.0 °F 1008.0 in WSW 6.4 mph 6.4 mph 41 % 0.0 in
02:03 4.1 °F -8.0 °F 1007.0 in West 9.3 mph 9.3 mph 41 % 0.0 in
02:08 4.0 °F -8.1 °F 1007.0 in WSW 9.3 mph 9.3 mph 41 % 0.0 in
02:13 4.0 °F -8.4 °F 1007.0 in West 3.9 mph 6.9 mph 40 % 0.0 in
02:18 3.9 °F -8.5 °F 1008.0 in WNW 6.1 mph 6.1 mph 40 % 0.0 in
02:23 3.9 °F -8.5 °F 1008.0 in WNW 6.1 mph 6.1 mph 40 % 0.0 in
02:28 3.8 °F -8.6 °F 1008.0 in WNW 6.1 mph 6.1 mph 40 % 0.0 in
02:33 3.8 °F -8.9 °F 1008.0 in WNW 6.1 mph 6.1 mph 39 % 0.0 in
02:38 3.7 °F -8.7 °F 1008.0 in WNW 6.1 mph 6.1 mph 40 % 0.0 in
02:43 3.5 °F -8.8 °F 1008.0 in WNW 5.6 mph 5.8 mph 40 % 0.0 in
02:48 3.3 °F -9.1 °F 1008.0 in West 5.3 mph 5.3 mph 40 % 0.0 in
02:53 3.1 °F -9.2 °F 1008.0 in West 5.6 mph 5.6 mph 40 % 0.0 in
02:58 3.0 °F -9.0 °F 1008.0 in WSW 3.7 mph 4.2 mph 41 % 0.0 in
03:03 3.1 °F -8.9 °F 1009.0 in West 5.6 mph 5.8 mph 41 % 0.0 in
03:08 3.1 °F -8.9 °F 1009.0 in WNW 11.1 mph 11.1 mph 41 % 0.0 in
03:13 3.2 °F -8.8 °F 1009.0 in West 5.6 mph 5.6 mph 41 % 0.0 in
03:18 3.1 °F -8.9 °F 1009.0 in WSW 4.7 mph 5.3 mph 41 % 0.0 in
03:23 3.1 °F -8.9 °F 1009.0 in WSW 5.6 mph 5.6 mph 41 % 0.0 in
03:28 3.4 °F -8.6 °F 1009.0 in WNW 9.3 mph 9.3 mph 41 % 0.0 in
03:33 3.6 °F -8.4 °F 1009.0 in West 5.6 mph 5.8 mph 41 % 0.0 in
03:38 3.5 °F -8.6 °F 1009.0 in SW 9.3 mph 9.3 mph 41 % 0.0 in
03:43 3.2 °F -8.8 °F 1009.0 in SW 3.7 mph 3.9 mph 41 % 0.0 in
03:48 3.0 °F -9.0 °F 1009.0 in SW 3.7 mph 4.7 mph 41 % 0.0 in
03:53 2.8 °F -9.2 °F 1009.0 in SW 5.8 mph 5.8 mph 41 % 0.0 in
03:58 2.6 °F -9.3 °F 1009.0 in West 5.6 mph 5.6 mph 41 % 0.0 in
04:03 2.5 °F -9.1 °F 1009.0 in WSW 3.9 mph 4.2 mph 42 % 0.0 in
04:08 2.4 °F -9.2 °F 1009.0 in West 3.9 mph 3.9 mph 42 % 0.0 in
04:13 2.3 °F -9.3 °F 1009.0 in WSW 4.7 mph 5.0 mph 42 % 0.0 in
04:18 2.3 °F -9.3 °F 1010.0 in West 4.7 mph 4.7 mph 42 % 0.0 in
04:23 2.8 °F -8.9 °F 1010.0 in West 4.7 mph 4.7 mph 42 % 0.0 in
04:28 2.9 °F -8.8 °F 1010.0 in West 4.7 mph 4.7 mph 42 % 0.0 in
04:33 2.9 °F -8.5 °F 1010.0 in SW 2.6 mph 6.9 mph 43 % 0.0 in
04:38 2.8 °F -8.6 °F 1010.0 in WNW 9.7 mph 9.7 mph 43 % 0.0 in
04:43 2.8 °F -8.6 °F 1010.0 in West 2.3 mph 3.5 mph 43 % 0.0 in
04:48 2.8 °F -8.3 °F 1010.0 in West 2.3 mph 3.5 mph 44 % 0.0 in
04:53 2.8 °F -8.3 °F 1010.0 in West 2.3 mph 3.5 mph 44 % 0.0 in
04:58 2.6 °F -8.4 °F 1010.0 in WNW 7.4 mph 7.4 mph 44 % 0.0 in
05:03 2.6 °F -8.4 °F 1010.0 in WNW 5.6 mph 5.6 mph 44 % 0.0 in
05:08 2.6 °F -8.2 °F 1010.0 in WNW 5.6 mph 5.6 mph 45 % 0.0 in
05:13 2.5 °F -8.3 °F 1010.0 in WSW 9.3 mph 9.3 mph 45 % 0.0 in
05:18 2.4 °F -8.3 °F 1010.0 in WSW 5.6 mph 5.6 mph 45 % 0.0 in
05:23 2.3 °F -8.4 °F 1010.0 in WSW 3.7 mph 5.0 mph 45 % 0.0 in
05:28 2.3 °F -8.4 °F 1010.0 in West 3.7 mph 3.7 mph 45 % 0.0 in
05:33 2.4 °F -8.1 °F 1010.0 in West 9.3 mph 9.3 mph 46 % 0.0 in
05:38 2.4 °F -8.1 °F 1010.0 in West 5.6 mph 5.6 mph 46 % 0.0 in
05:43 2.2 °F -8.2 °F 1010.0 in WNW 5.6 mph 5.6 mph 46 % 0.0 in
05:48 2.2 °F -8.2 °F 1010.0 in WSW 4.2 mph 4.2 mph 46 % 0.0 in
05:53 2.0 °F -8.4 °F 1010.0 in WSW 5.6 mph 5.6 mph 46 % 0.0 in
05:58 1.9 °F -8.5 °F 1010.0 in SW 3.7 mph 3.7 mph 46 % 0.0 in
06:03 1.9 °F -8.5 °F 1010.0 in ENE 3.9 mph 3.9 mph 46 % 0.0 in
06:08 1.9 °F -8.5 °F 1010.0 in Calm     46 % 0.0 in
06:13 2.0 °F -8.4 °F 1010.0 in WSW 7.4 mph 7.4 mph 46 % 0.0 in
06:18 2.1 °F -8.1 °F 1009.0 in WSW 5.3 mph 5.3 mph 47 % 0.0 in
06:23 2.0 °F -8.2 °F 1009.0 in WSW 4.7 mph 4.7 mph 47 % 0.0 in
06:28 2.1 °F -8.1 °F 1009.0 in WSW 5.6 mph 5.6 mph 47 % 0.0 in
06:33 2.1 °F -8.1 °F 1010.0 in West 3.2 mph   47 % 0.0 in
06:38 2.0 °F -8.4 °F 1010.0 in Calm     46 % 0.0 in
06:43 2.0 °F -8.4 °F 1010.0 in West 1.9 mph 1.9 mph 46 % 0.0 in
06:48 2.0 °F -8.4 °F 1010.0 in NW 2.6 mph   46 % 0.0 in
06:53 1.9 °F -8.2 °F 1010.0 in NNE 1.9 mph 2.3 mph 47 % 0.0 in
06:58 1.8 °F -8.3 °F 1010.0 in NW 1.9 mph   47 % 0.0 in
07:03 1.8 °F -8.3 °F 1010.0 in NW 1.9 mph 1.9 mph 47 % 0.0 in
07:08 1.6 °F -8.5 °F 1010.0 in Calm     47 % 0.0 in
07:13 1.4 °F -8.7 °F 1010.0 in ENE 3.9 mph 3.9 mph 47 % 0.0 in
07:18 1.3 °F -8.8 °F 1010.0 in Calm     47 % 0.0 in
07:23 1.3 °F -8.5 °F 1010.0 in NE 3.9 mph 3.9 mph 48 % 0.0 in
07:28 1.1 °F -8.7 °F 1010.0 in NE 3.7 mph 3.7 mph 48 % 0.0 in
07:33 1.0 °F -8.8 °F 1010.7 in NNW 1.9 mph 1.9 mph 48 % 0.0 in
07:38 1.0 °F -8.8 °F 1010.7 in WSW 3.9 mph   48 % 0.0 in
07:43 1.0 °F -8.8 °F 1010.7 in SW 3.7 mph 3.7 mph 48 % 0.0 in
07:48 0.9 °F -8.9 °F 1010.7 in WSW 3.7 mph 3.7 mph 48 % 0.0 in
07:53 1.1 °F -8.4 °F 1010.7 in NNW 11.1 mph 11.1 mph 49 % 0.0 in
07:58 1.4 °F -8.2 °F 1010.7 in NW 9.3 mph 9.3 mph 49 % 0.0 in
08:03 1.6 °F -8.0 °F 1010.7 in WSW 11.4 mph 11.4 mph 49 % 0.0 in
08:08 1.8 °F -7.8 °F 1010.7 in WSW 5.6 mph 5.6 mph 49 % 0.0 in
08:13 1.9 °F -7.7 °F 1010.7 in SW 5.6 mph 5.6 mph 49 % 0.0 in
08:18 2.0 °F -7.6 °F 1011.7 in WNW 1.9 mph 1.9 mph 49 % 0.0 in
08:23 2.2 °F -7.4 °F 1011.7 in SE 4.2 mph 4.2 mph 49 % 0.0 in
08:28 2.5 °F -7.2 °F 1011.7 in ENE 4.2 mph 4.2 mph 49 % 0.0 in
08:33 2.6 °F -7.1 °F 1011.7 in West 5.6 mph 5.6 mph 49 % 0.0 in
08:38 3.0 °F -6.7 °F 1011.7 in NE 3.9 mph   49 % 0.0 in
08:43 3.1 °F -6.6 °F 1011.7 in WSW 2.3 mph 2.3 mph 49 % 0.0 in
08:48 3.1 °F -6.6 °F 1011.7 in NW 3.9 mph 3.9 mph 49 % 0.0 in
08:53 3.2 °F -6.5 °F 1011.7 in NW 3.7 mph 3.7 mph 49 % 0.0 in
08:58 3.3 °F -6.4 °F 1011.7 in NNW 7.4 mph 7.4 mph 49 % 0.0 in
09:03 3.6 °F -6.1 °F 1011.7 in WSW 6.4 mph 6.4 mph 49 % 0.0 in
09:08 3.7 °F -6.1 °F 1011.7 in WNW 4.7 mph 4.7 mph 49 % 0.0 in
09:13 3.9 °F -5.8 °F 1011.7 in WSW 7.4 mph 7.4 mph 49 % 0.0 in
09:18 4.1 °F -5.7 °F 1011.7 in NW 6.4 mph 6.4 mph 49 % 0.0 in
09:23 4.2 °F -5.6 °F 1011.7 in WNW 7.4 mph 7.4 mph 49 % 0.0 in
09:28 4.6 °F -5.2 °F 1011.7 in West 7.4 mph 7.4 mph 49 % 0.0 in
09:33 4.7 °F -5.1 °F 1011.7 in WSW 11.1 mph 11.1 mph 49 % 0.0 in
09:38 4.8 °F -5.1 °F 1011.7 in WNW 9.7 mph 9.7 mph 49 % 0.0 in
09:43 5.2 °F -4.4 °F 1011.7 in West 5.6 mph 5.6 mph 50 % 0.0 in
09:48 5.3 °F -4.3 °F 1011.7 in NW 6.4 mph 6.4 mph 50 % 0.0 in
09:53 5.6 °F -4.0 °F 1011.7 in West 3.7 mph 3.7 mph 50 % 0.0 in
09:58 5.7 °F -3.9 °F 1011.7 in WSW 14.8 mph 14.8 mph 50 % 0.0 in
10:03 6.1 °F -3.6 °F 1011.7 in West 3.7 mph 3.7 mph 50 % 0.0 in
10:08 5.9 °F -3.7 °F 1011.7 in WNW 11.1 mph 11.1 mph 50 % 0.0 in
10:13 6.3 °F -3.4 °F 1011.7 in West 5.6 mph 5.6 mph 50 % 0.0 in
10:18 6.5 °F -3.2 °F 1011.7 in West 11.1 mph 11.1 mph 50 % 0.0 in
10:24 6.6 °F -3.1 °F 1011.7 in West 14.8 mph 14.8 mph 50 % 0.0 in
10:29 6.7 °F -3.3 °F 1011.7 in West 11.1 mph 11.1 mph 49 % 0.0 in
10:34 6.7 °F -3.3 °F 1011.7 in SSW 13.0 mph 13.0 mph 49 % 0.0 in
10:39 6.7 °F -3.3 °F 1011.7 in West 16.7 mph 16.7 mph 49 % 0.0 in
10:44 6.9 °F -3.1 °F 1012.8 in WSW 9.5 mph 9.5 mph 49 % 0.0 in
10:49 7.1 °F -2.9 °F 1012.8 in SW 16.7 mph 16.7 mph 49 % 0.0 in
10:54 7.2 °F -2.8 °F 1012.8 in NW 11.9 mph 11.9 mph 49 % 0.0 in
10:59 7.0 °F -3.0 °F 1012.8 in West 16.9 mph 16.9 mph 49 % 0.0 in
11:04 6.9 °F -2.8 °F 1012.8 in West 7.4 mph 10.0 mph 50 % 0.0 in
11:09 6.7 °F -3.0 °F 1012.8 in WNW 11.1 mph 11.1 mph 50 % 0.0 in
11:14 6.8 °F -2.9 °F 1012.8 in WSW 11.1 mph 11.1 mph 50 % 0.0 in
11:19 6.8 °F -2.9 °F 1012.8 in SSW 13.0 mph 13.0 mph 50 % 0.0 in
11:24 7.0 °F -2.7 °F 1012.8 in WSW 13.0 mph 13.0 mph 50 % 0.0 in
11:29 7.0 °F -2.7 °F 1011.7 in West 13.0 mph 13.0 mph 50 % 0.0 in
11:34 7.2 °F -2.6 °F 1011.7 in SW 11.1 mph 11.1 mph 50 % 0.0 in
11:39 7.3 °F -2.4 °F 1011.7 in NW 13.0 mph 13.0 mph 50 % 0.0 in
11:44 7.6 °F -2.2 °F 1011.7 in West 13.0 mph 13.0 mph 50 % 0.0 in
11:49 7.6 °F -2.2 °F 1011.7 in WSW 14.8 mph 14.8 mph 50 % 0.0 in
11:54 7.8 °F -2.0 °F 1011.7 in SSW 13.0 mph 13.0 mph 50 % 0.0 in
11:59 7.9 °F -1.9 °F 1011.7 in WSW 13.0 mph 13.0 mph 50 % 0.0 in
12:04 8.0 °F -1.8 °F 1011.7 in WSW 15.8 mph 15.8 mph 50 % 0.0 in
12:09 7.4 °F -2.3 °F 1011.7 in WSW 13.0 mph 13.0 mph 50 % 0.0 in
12:14 7.4 °F -2.3 °F 1011.7 in SW 16.7 mph 16.7 mph 50 % 0.0 in
12:19 7.4 °F -2.3 °F 1011.7 in WNW 22.2 mph 22.2 mph 50 % 0.0 in
12:24 7.3 °F -2.4 °F 1011.7 in WNW 22.2 mph 22.2 mph 50 % 0.0 in
12:29 7.5 °F -2.3 °F 1011.7 in WSW 14.8 mph 14.8 mph 50 % 0.0 in
12:34 7.5 °F -2.3 °F 1011.7 in West 24.1 mph 24.1 mph 50 % 0.0 in
12:39 7.9 °F -1.9 °F 1011.7 in WSW 14.8 mph 14.8 mph 50 % 0.0 in
12:44 8.0 °F -1.8 °F 1010.7 in WSW 25.9 mph 25.9 mph 50 % 0.0 in
12:49 8.1 °F -1.7 °F 1010.7 in SW 16.7 mph 16.7 mph 50 % 0.0 in
12:54 8.2 °F -1.6 °F 1010.7 in West 20.4 mph 20.4 mph 50 % 0.0 in
12:59 8.5 °F -1.3 °F 1011.7 in WNW 20.4 mph 20.4 mph 50 % 0.0 in
13:04 8.4 °F -1.7 °F 1011.7 in NW 9.5 mph 9.5 mph 49 % 0.0 in
13:09 8.3 °F -1.8 °F 1011.7 in West 13.0 mph 13.0 mph 49 % 0.0 in
13:14 8.1 °F -2.0 °F 1010.7 in WSW 11.1 mph 11.1 mph 49 % 0.0 in
13:19 7.8 °F -2.3 °F 1010.7 in WSW 9.3 mph 9.3 mph 49 % 0.0 in
13:24 7.8 °F -2.0 °F 1010.7 in West 9.3 mph 9.3 mph 50 % 0.0 in
13:29 7.7 °F -2.1 °F 1011.7 in WSW 7.4 mph 7.4 mph 50 % 0.0 in
13:34 7.7 °F -2.1 °F 1011.7 in West 9.3 mph 9.3 mph 50 % 0.0 in
13:39 8.1 °F -1.7 °F 1011.7 in WSW 9.3 mph 9.3 mph 50 % 0.0 in
13:44 8.8 °F -0.8 °F 1011.7 in WSW 7.4 mph 7.4 mph 51 % 0.0 in
13:49 8.9 °F -0.7 °F 1011.7 in NNW 5.6 mph 5.6 mph 51 % 0.0 in
13:54 8.8 °F -0.8 °F 1011.7 in West 5.6 mph 5.6 mph 51 % 0.0 in
13:59 8.8 °F -0.8 °F 1010.7 in SSW 9.3 mph 9.3 mph 51 % 0.0 in
14:04 8.7 °F -0.9 °F 1010.7 in WSW 9.3 mph 9.3 mph 51 % 0.0 in
14:09 8.7 °F -1.2 °F 1010.7 in WNW 16.7 mph 16.7 mph 50 % 0.0 in
14:14 8.8 °F -1.1 °F 1010.0 in WSW 9.3 mph 9.3 mph 50 % 0.0 in
14:19 9.0 °F -0.6 °F 1010.0 in West 16.7 mph 16.7 mph 51 % 0.0 in
14:24 9.2 °F -0.4 °F 1010.0 in WNW 7.4 mph 7.4 mph 51 % 0.0 in
14:29 9.1 °F -0.8 °F 1010.0 in WNW 13.0 mph 13.0 mph 50 % 0.0 in
14:34 9.1 °F -0.8 °F 1010.0 in WSW 14.8 mph 14.8 mph 50 % 0.0 in
14:39 9.1 °F -0.8 °F 1010.0 in West 11.1 mph 11.1 mph 50 % 0.0 in
14:44 9.1 °F -0.8 °F 1010.0 in WSW 9.7 mph 9.7 mph 50 % 0.0 in
14:49 9.0 °F -0.9 °F 1010.0 in WSW 7.4 mph 7.4 mph 50 % 0.0 in
14:54 9.2 °F -0.7 °F 1010.0 in WSW 13.0 mph 13.0 mph 50 % 0.0 in
14:59 9.2 °F -0.7 °F 1010.0 in SW 13.0 mph 13.0 mph 50 % 0.0 in
15:04 9.3 °F -0.6 °F 1010.0 in WSW 10.3 mph 10.3 mph 50 % 0.0 in
15:09 9.4 °F -0.2 °F 1010.0 in SSW 13.0 mph 13.0 mph 51 % 0.0 in
15:14 9.5 °F -0.2 °F 1010.0 in West 15.1 mph 15.1 mph 51 % 0.0 in
15:19 9.6 °F -0.1 °F 1010.0 in WSW 15.6 mph 15.6 mph 51 % 0.0 in
15:24 9.6 °F -0.1 °F 1010.0 in WSW 13.0 mph 13.0 mph 51 % 0.0 in
15:29 9.6 °F -0.1 °F 1009.0 in West 9.3 mph 9.3 mph 51 % 0.0 in
15:34 9.6 °F -0.1 °F 1009.0 in SSW 9.3 mph 9.3 mph 51 % 0.0 in
15:39 9.6 °F -0.1 °F 1009.0 in West 13.0 mph 13.0 mph 51 % 0.0 in
15:44 9.7 °F 0.1 °F 1009.0 in NNW 7.4 mph 7.4 mph 51 % 0.0 in
15:49 9.7 °F 0.1 °F 1009.0 in SSW 13.0 mph 13.0 mph 51 % 0.0 in
15:54 9.8 °F 0.1 °F 1009.0 in West 7.4 mph 7.4 mph 51 % 0.0 in
15:59 10.0 °F 0.3 °F 1009.0 in SW 5.6 mph 5.6 mph 51 % 0.0 in
16:04 10.2 °F 0.2 °F 1009.0 in WSW 13.0 mph 13.0 mph 50 % 0.0 in
16:09 10.6 °F 0.9 °F 1009.0 in WSW 9.3 mph 9.3 mph 51 % 0.0 in
16:14 10.7 °F 0.9 °F 1009.0 in WSW 11.1 mph 11.1 mph 51 % 0.0 in
16:19 11.0 °F 0.9 °F 1009.0 in SW 14.8 mph 14.8 mph 50 % 0.0 in
16:24 11.1 °F 1.1 °F 1009.0 in West 9.3 mph 9.3 mph 50 % 0.0 in
16:29 10.9 °F 0.9 °F 1009.0 in SW 7.4 mph 7.4 mph 50 % 0.0 in
16:34 11.1 °F 1.1 °F 1009.0 in NW 11.1 mph 11.1 mph 50 % 0.0 in
16:39 11.1 °F 1.1 °F 1009.0 in West 7.9 mph 7.9 mph 50 % 0.0 in
16:44 11.2 °F 1.2 °F 1009.0 in WNW 7.4 mph 7.4 mph 50 % 0.0 in
16:49 11.1 °F 1.1 °F 1009.0 in SSW 13.0 mph 13.0 mph 50 % 0.0 in
16:54 11.1 °F 1.1 °F 1009.0 in West 9.3 mph 9.3 mph 50 % 0.0 in
16:59 11.0 °F 0.7 °F 1008.0 in West 11.1 mph 11.1 mph 49 % 0.0 in
17:04 11.0 °F 0.7 °F 1008.0 in WSW 13.0 mph 13.0 mph 49 % 0.0 in
17:09 10.9 °F 0.6 °F 1008.0 in West 15.6 mph 15.6 mph 49 % 0.0 in
17:14 10.8 °F 0.2 °F 1009.0 in WSW 13.0 mph 13.0 mph 48 % 0.0 in
17:19 10.8 °F 0.5 °F 1009.0 in WSW 11.1 mph 11.1 mph 49 % 0.0 in
17:24 10.7 °F 0.4 °F 1009.0 in WSW 9.5 mph 9.5 mph 49 % 0.0 in
17:29 10.6 °F 0.3 °F 1008.0 in SSW 5.6 mph 5.6 mph 49 % 0.0 in
17:34 10.5 °F 0.2 °F 1008.0 in SW 7.4 mph 7.4 mph 49 % 0.0 in
17:39 10.4 °F 0.1 °F 1008.0 in SSW 9.3 mph 9.3 mph 49 % 0.0 in
17:44 10.1 °F -0.2 °F 1009.0 in SW 11.1 mph 11.1 mph 49 % 0.0 in
17:49 9.9 °F -0.3 °F 1009.0 in SSW 7.4 mph 7.4 mph 49 % 0.0 in
17:54 9.8 °F -0.4 °F 1009.0 in WNW 11.1 mph 11.1 mph 49 % 0.0 in
17:59 9.8 °F -0.4 °F 1009.0 in West 9.3 mph 9.3 mph 49 % 0.0 in
18:04 9.7 °F -0.5 °F 1009.0 in WSW 9.3 mph 9.3 mph 49 % 0.0 in
18:09 9.5 °F -0.7 °F 1009.0 in West 9.3 mph 9.3 mph 49 % 0.0 in
18:14 9.4 °F -0.8 °F 1009.0 in WSW 5.6 mph 5.6 mph 49 % 0.0 in
18:19 9.2 °F -1.0 °F 1009.0 in WSW 7.9 mph 7.9 mph 49 % 0.0 in
18:24 9.2 °F -1.0 °F 1009.0 in WNW 5.6 mph 5.6 mph 49 % 0.0 in
18:29 9.1 °F -1.1 °F 1009.0 in SW 9.3 mph 9.3 mph 49 % 0.0 in
18:34 9.1 °F -1.1 °F 1009.0 in West 13.7 mph 13.7 mph 49 % 0.0 in
18:39 9.0 °F -0.9 °F 1009.0 in West 9.3 mph 9.3 mph 50 % 0.0 in
18:44 8.9 °F -1.0 °F 1009.0 in WSW 9.7 mph 9.7 mph 50 % 0.0 in
18:49 8.9 °F -1.0 °F 1009.0 in WSW 7.4 mph 7.4 mph 50 % 0.0 in
18:54 8.8 °F -1.1 °F 1009.0 in SW 7.4 mph 7.4 mph 50 % 0.0 in
18:59 8.7 °F -1.2 °F 1009.0 in WNW 7.4 mph 7.4 mph 50 % 0.0 in
19:04 8.7 °F -1.2 °F 1009.0 in WSW 9.3 mph 9.3 mph 50 % 0.0 in
19:09 8.7 °F -1.2 °F 1009.0 in WSW 9.3 mph 9.3 mph 50 % 0.0 in
19:14 8.6 °F -1.3 °F 1009.0 in WSW 5.6 mph 5.6 mph 50 % 0.0 in
19:19 8.6 °F -1.3 °F 1009.0 in WSW 6.9 mph 6.9 mph 50 % 0.0 in
19:24 8.5 °F -1.3 °F 1009.0 in WSW 9.3 mph 9.3 mph 50 % 0.0 in
19:29 8.5 °F -1.1 °F 1009.0 in West 7.4 mph 7.4 mph 51 % 0.0 in
19:34 8.5 °F -1.1 °F 1009.0 in WNW 7.4 mph 7.4 mph 51 % 0.0 in
19:39 8.4 °F -1.2 °F 1009.0 in WSW 7.4 mph 7.4 mph 51 % 0.0 in
19:44 8.3 °F -1.3 °F 1009.0 in West 9.3 mph 9.3 mph 51 % 0.0 in
19:49 8.3 °F -1.3 °F 1009.0 in West 7.4 mph 7.4 mph 51 % 0.0 in
19:54 8.3 °F -1.3 °F 1009.0 in WSW 7.4 mph 7.4 mph 51 % 0.0 in
19:59 8.3 °F -1.3 °F 1010.0 in West 11.1 mph 11.1 mph 51 % 0.0 in
20:04 8.2 °F -1.3 °F 1010.0 in SSW 7.4 mph 7.4 mph 51 % 0.0 in
20:09 8.1 °F -1.2 °F 1010.0 in SW 9.3 mph 9.3 mph 52 % 0.0 in
20:14 8.2 °F -1.1 °F 1010.0 in WSW 11.1 mph 11.1 mph 52 % 0.0 in
20:19 8.2 °F -1.1 °F 1010.0 in WSW 13.0 mph 13.0 mph 52 % 0.0 in
20:24 8.1 °F -1.2 °F 1010.0 in SSW 7.6 mph 7.6 mph 52 % 0.0 in
20:29 8.2 °F -1.1 °F 1010.0 in WSW 9.3 mph 9.3 mph 52 % 0.0 in
20:34 8.0 °F -1.3 °F 1010.0 in WNW 9.3 mph 9.3 mph 52 % 0.0 in
20:39 8.0 °F -1.0 °F 1010.0 in WSW 16.7 mph 16.7 mph 53 % 0.0 in
20:44 8.0 °F -1.0 °F 1009.0 in WSW 9.3 mph 9.3 mph 53 % 0.0 in
20:49 8.0 °F -1.0 °F 1009.0 in WSW 9.3 mph 9.3 mph 53 % 0.0 in
20:54 8.2 °F -0.6 °F 1009.0 in West 24.1 mph 24.1 mph 54 % 0.0 in
20:59 8.2 °F -0.6 °F 1009.0 in West 14.8 mph 14.8 mph 54 % 0.0 in
21:04 8.2 °F -0.3 °F 1009.0 in SSW 9.3 mph 9.3 mph 55 % 0.0 in
21:09 8.1 °F -0.4 °F 1009.0 in West 17.5 mph 17.5 mph 55 % 0.0 in
21:14 8.2 °F -0.3 °F 1009.0 in West 14.8 mph 14.8 mph 55 % 0.0 in
21:19 8.1 °F -0.2 °F 1009.0 in SSW 9.5 mph 9.5 mph 56 % 0.0 in
21:24 8.1 °F -0.2 °F 1009.0 in SSW 13.0 mph 13.0 mph 56 % 0.0 in
21:29 8.0 °F -0.3 °F 1009.0 in WNW 7.4 mph 7.4 mph 56 % 0.0 in
21:34 7.9 °F -0.3 °F 1009.0 in WSW 13.0 mph 13.0 mph 56 % 0.0 in
21:39 7.9 °F -0.3 °F 1009.0 in WSW 7.4 mph 7.4 mph 56 % 0.0 in
21:44 7.8 °F -0.4 °F 1009.0 in WSW 9.3 mph 9.3 mph 56 % 0.0 in
21:49 7.8 °F -0.4 °F 1009.0 in WSW 9.3 mph 9.3 mph 56 % 0.0 in
21:54 7.6 °F -0.6 °F 1009.0 in SSW 3.7 mph 3.7 mph 56 % 0.0 in
21:59 7.6 °F -0.4 °F 1009.0 in WSW 5.6 mph 5.6 mph 57 % 0.0 in
22:04 7.5 °F -0.5 °F 1009.0 in West 3.7 mph 3.7 mph 57 % 0.0 in
22:09 7.5 °F -0.5 °F 1009.0 in WSW 5.6 mph 5.6 mph 57 % 0.0 in
22:14 7.5 °F -0.5 °F 1009.0 in West 5.6 mph 5.6 mph 57 % 0.0 in
22:19 7.3 °F -0.7 °F 1009.0 in SW 3.7 mph 3.7 mph 57 % 0.0 in
22:24 7.2 °F -0.5 °F 1009.0 in South 1.9 mph 1.9 mph 58 % 0.0 in
22:29 7.2 °F -0.5 °F 1010.0 in West 3.7 mph 3.7 mph 58 % 0.0 in
22:34 7.3 °F -0.4 °F 1010.0 in WSW 5.6 mph 5.6 mph 58 % 0.0 in
22:39 7.4 °F -0.3 °F 1010.0 in WSW 9.3 mph 9.3 mph 58 % 0.0 in
22:44 7.3 °F -0.4 °F 1009.0 in WNW 7.4 mph 7.4 mph 58 % 0.0 in
22:49 7.2 °F -0.5 °F 1009.0 in WSW 3.9 mph 3.9 mph 58 % 0.0 in
22:54 7.2 °F -0.5 °F 1009.0 in WSW 4.2 mph 4.2 mph 58 % 0.0 in
22:59 7.1 °F -0.6 °F 1010.0 in West 6.4 mph 6.4 mph 58 % 0.0 in
23:04 7.1 °F -0.6 °F 1010.0 in West 9.3 mph 9.3 mph 58 % 0.0 in
23:09 7.0 °F -0.5 °F 1010.0 in SW 7.4 mph 7.4 mph 59 % 0.0 in
23:14 7.0 °F -0.5 °F 1009.0 in West 5.6 mph 5.6 mph 59 % 0.0 in
23:19 6.9 °F -0.3 °F 1009.0 in SW 3.7 mph 3.7 mph 60 % 0.0 in
23:24 6.9 °F -0.6 °F 1009.0 in WSW 7.4 mph 7.4 mph 59 % 0.0 in
23:29 6.9 °F -0.3 °F 1010.0 in WSW 4.2 mph 4.2 mph 60 % 0.0 in
23:34 6.7 °F -0.5 °F 1010.0 in WSW 5.6 mph 5.6 mph 60 % 0.0 in
23:39 6.8 °F -0.4 °F 1010.0 in WNW 5.6 mph 5.6 mph 60 % 0.0 in
23:44 6.8 °F -0.4 °F 1009.0 in WNW 5.6 mph 5.6 mph 60 % 0.0 in
23:49 6.8 °F -0.4 °F 1009.0 in West 5.6 mph 5.6 mph 60 % 0.0 in
23:54 6.8 °F -0.4 °F 1009.0 in WSW 7.4 mph 7.4 mph 60 % 0.0 in
23:59 6.9 °F -0.1 °F 1010.0 in WSW 4.2 mph 4.2 mph 61 % 0.0 in
Meteo Sesrovires
Elogis d' Weather Underground - 4 mb

Guio original per  Jim McMurry - jmcmurry@mwt.net Adaptat per a la plantilla per  Wim van der Kuil - Leuven-Template.eu

Trobareu la nostra informacio del temps tambe a:

Weather Underground

AWEKAS